sensor_id;sensor_type;location;lat;lon;timestamp;pressure;altitude;pressure_sealevel;temperature;humidity
550;BME280;20066;48.764;9.176;2022-11-21T00:01:16;97438.25;;;6.50;75.52
550;BME280;20066;48.764;9.176;2022-11-21T00:03:46;97437.31;;;6.21;76.23
550;BME280;20066;48.764;9.176;2022-11-21T00:06:14;97433.25;;;6.45;76.76
550;BME280;20066;48.764;9.176;2022-11-21T00:08:42;97426.09;;;5.91;77.41
550;BME280;20066;48.764;9.176;2022-11-21T00:11:10;97428.25;;;6.37;75.06
550;BME280;20066;48.764;9.176;2022-11-21T00:13:38;97426.50;;;5.97;76.67
550;BME280;20066;48.764;9.176;2022-11-21T00:16:07;97417.25;;;6.56;73.55
550;BME280;20066;48.764;9.176;2022-11-21T00:18:35;97412.84;;;6.85;73.77
550;BME280;20066;48.764;9.176;2022-11-21T00:21:05;97419.22;;;6.63;74.38
550;BME280;20066;48.764;9.176;2022-11-21T00:23:34;97404.09;;;6.12;75.93
550;BME280;20066;48.764;9.176;2022-11-21T00:26:05;97402.91;;;6.89;72.95
550;BME280;20066;48.764;9.176;2022-11-21T00:28:33;97402.16;;;6.88;73.79
550;BME280;20066;48.764;9.176;2022-11-21T00:31:01;97392.19;;;6.78;73.81
550;BME280;20066;48.764;9.176;2022-11-21T00:33:29;97391.72;;;6.58;75.32
550;BME280;20066;48.764;9.176;2022-11-21T00:35:57;97379.75;;;6.24;75.11
550;BME280;20066;48.764;9.176;2022-11-21T00:38:27;97386.56;;;6.14;76.66
550;BME280;20066;48.764;9.176;2022-11-21T00:40:55;97374.63;;;5.94;78.03
550;BME280;20066;48.764;9.176;2022-11-21T00:43:22;97366.44;;;6.31;76.05
550;BME280;20066;48.764;9.176;2022-11-21T00:45:57;97371.94;;;5.94;76.83
550;BME280;20066;48.764;9.176;2022-11-21T00:48:32;97363.31;;;6.15;74.48
550;BME280;20066;48.764;9.176;2022-11-21T00:50:59;97362.25;;;6.37;75.04
550;BME280;20066;48.764;9.176;2022-11-21T00:53:28;97367.84;;;6.11;75.10
550;BME280;20066;48.764;9.176;2022-11-21T00:55:56;97356.22;;;5.78;77.25
550;BME280;20066;48.764;9.176;2022-11-21T00:58:24;97350.41;;;5.59;77.34
550;BME280;20066;48.764;9.176;2022-11-21T01:01:01;97362.72;;;5.81;77.49
550;BME280;20066;48.764;9.176;2022-11-21T01:03:30;97349.66;;;5.62;76.80
550;BME280;20066;48.764;9.176;2022-11-21T01:06:00;97368.13;;;5.37;77.57
550;BME280;20066;48.764;9.176;2022-11-21T01:08:29;97362.25;;;5.65;77.08
550;BME280;20066;48.764;9.176;2022-11-21T01:11:01;97368.25;;;5.55;77.38
550;BME280;20066;48.764;9.176;2022-11-21T01:13:29;97373.22;;;5.53;77.39
550;BME280;20066;48.764;9.176;2022-11-21T01:16:01;97376.59;;;5.46;78.16
550;BME280;20066;48.764;9.176;2022-11-21T01:18:29;97374.22;;;5.85;76.88
550;BME280;20066;48.764;9.176;2022-11-21T01:20:58;97366.41;;;5.59;77.80
550;BME280;20066;48.764;9.176;2022-11-21T01:23:26;97357.91;;;5.42;79.35
550;BME280;20066;48.764;9.176;2022-11-21T01:26:00;97362.34;;;5.79;77.07
550;BME280;20066;48.764;9.176;2022-11-21T01:28:27;97354.28;;;5.72;77.59
550;BME280;20066;48.764;9.176;2022-11-21T01:31:02;97365.34;;;5.74;77.91
550;BME280;20066;48.764;9.176;2022-11-21T01:33:30;97352.25;;;5.55;80.49
550;BME280;20066;48.764;9.176;2022-11-21T01:36:05;97359.88;;;5.53;80.21
550;BME280;20066;48.764;9.176;2022-11-21T01:38:32;97365.81;;;5.87;78.97
550;BME280;20066;48.764;9.176;2022-11-21T01:41:01;97368.44;;;5.79;78.38
550;BME280;20066;48.764;9.176;2022-11-21T01:43:29;97378.16;;;5.51;80.72
550;BME280;20066;48.764;9.176;2022-11-21T01:45:58;97354.78;;;5.33;80.72
550;BME280;20066;48.764;9.176;2022-11-21T01:48:31;97349.91;;;5.42;81.52
550;BME280;20066;48.764;9.176;2022-11-21T01:51:06;97343.53;;;5.54;81.31
550;BME280;20066;48.764;9.176;2022-11-21T01:53:37;97337.22;;;5.87;80.81
550;BME280;20066;48.764;9.176;2022-11-21T01:56:07;97339.31;;;5.53;82.50
550;BME280;20066;48.764;9.176;2022-11-21T01:58:36;97334.59;;;5.94;82.54
550;BME280;20066;48.764;9.176;2022-11-21T02:01:05;97341.13;;;6.00;79.79
550;BME280;20066;48.764;9.176;2022-11-21T02:03:35;97329.44;;;6.30;80.61
550;BME280;20066;48.764;9.176;2022-11-21T02:06:05;97337.84;;;5.63;81.80
550;BME280;20066;48.764;9.176;2022-11-21T02:08:34;97319.28;;;5.80;81.70
550;BME280;20066;48.764;9.176;2022-11-21T02:11:08;97327.41;;;6.09;80.79
550;BME280;20066;48.764;9.176;2022-11-21T02:13:38;97327.31;;;5.84;81.42
550;BME280;20066;48.764;9.176;2022-11-21T02:16:06;97325.88;;;6.01;81.18
550;BME280;20066;48.764;9.176;2022-11-21T02:18:34;97317.03;;;5.28;81.66
550;BME280;20066;48.764;9.176;2022-11-21T02:21:09;97331.28;;;5.50;83.13
550;BME280;20066;48.764;9.176;2022-11-21T02:23:45;97329.44;;;5.57;82.16
550;BME280;20066;48.764;9.176;2022-11-21T02:26:17;97329.22;;;5.87;81.49
550;BME280;20066;48.764;9.176;2022-11-21T02:28:45;97322.72;;;5.77;81.07
550;BME280;20066;48.764;9.176;2022-11-21T02:31:12;97325.88;;;6.04;80.56
550;BME280;20066;48.764;9.176;2022-11-21T02:33:40;97324.63;;;5.26;81.15
550;BME280;20066;48.764;9.176;2022-11-21T02:36:36;97323.84;;;5.80;81.21
550;BME280;20066;48.764;9.176;2022-11-21T02:39:06;97322.22;;;5.61;80.31
550;BME280;20066;48.764;9.176;2022-11-21T02:41:36;97322.44;;;6.00;78.73
550;BME280;20066;48.764;9.176;2022-11-21T02:44:14;97318.50;;;5.80;80.05
550;BME280;20066;48.764;9.176;2022-11-21T02:46:46;97317.44;;;5.30;82.74
550;BME280;20066;48.764;9.176;2022-11-21T02:49:19;97317.66;;;5.62;83.01
550;BME280;20066;48.764;9.176;2022-11-21T02:51:48;97324.09;;;5.54;80.97
550;BME280;20066;48.764;9.176;2022-11-21T02:54:16;97308.41;;;5.49;80.86
550;BME280;20066;48.764;9.176;2022-11-21T02:56:45;97311.88;;;5.56;81.33
550;BME280;20066;48.764;9.176;2022-11-21T02:59:12;97305.22;;;5.87;78.79
550;BME280;20066;48.764;9.176;2022-11-21T03:01:40;97307.88;;;5.87;79.66
550;BME280;20066;48.764;9.176;2022-11-21T03:04:08;97287.94;;;5.60;80.52
550;BME280;20066;48.764;9.176;2022-11-21T03:06:35;97283.50;;;5.85;79.88
550;BME280;20066;48.764;9.176;2022-11-21T03:09:03;97279.16;;;5.63;79.69
550;BME280;20066;48.764;9.176;2022-11-21T03:11:31;97284.31;;;6.03;79.95
550;BME280;20066;48.764;9.176;2022-11-21T03:14:00;97287.31;;;5.95;80.13
550;BME280;20066;48.764;9.176;2022-11-21T03:16:28;97295.72;;;5.93;79.02
550;BME280;20066;48.764;9.176;2022-11-21T03:18:55;97273.78;;;5.56;80.70
550;BME280;20066;48.764;9.176;2022-11-21T03:21:23;97281.22;;;5.94;79.40
550;BME280;20066;48.764;9.176;2022-11-21T03:23:51;97274.41;;;6.00;79.02
550;BME280;20066;48.764;9.176;2022-11-21T03:26:18;97271.38;;;6.05;78.76
550;BME280;20066;48.764;9.176;2022-11-21T03:28:46;97280.63;;;6.43;76.96
550;BME280;20066;48.764;9.176;2022-11-21T03:31:15;97278.81;;;5.71;77.70
550;BME280;20066;48.764;9.176;2022-11-21T03:33:43;97286.88;;;5.78;78.41
550;BME280;20066;48.764;9.176;2022-11-21T03:36:10;97303.00;;;6.03;77.29
550;BME280;20066;48.764;9.176;2022-11-21T03:38:38;97293.44;;;5.95;78.04
550;BME280;20066;48.764;9.176;2022-11-21T03:41:06;97283.31;;;5.57;79.43
550;BME280;20066;48.764;9.176;2022-11-21T03:43:54;97284.31;;;6.00;77.75
550;BME280;20066;48.764;9.176;2022-11-21T03:46:23;97284.00;;;6.19;76.69
550;BME280;20066;48.764;9.176;2022-11-21T03:48:50;97291.00;;;6.73;73.98
550;BME280;20066;48.764;9.176;2022-11-21T03:51:18;97285.97;;;6.40;75.03
550;BME280;20066;48.764;9.176;2022-11-21T03:53:46;97285.56;;;6.23;75.62
550;BME280;20066;48.764;9.176;2022-11-21T03:56:15;97287.13;;;6.39;75.38
550;BME280;20066;48.764;9.176;2022-11-21T03:58:43;97284.78;;;6.23;77.09
550;BME280;20066;48.764;9.176;2022-11-21T04:01:11;97296.78;;;7.04;73.65
550;BME280;20066;48.764;9.176;2022-11-21T04:03:41;97293.25;;;6.53;75.43
550;BME280;20066;48.764;9.176;2022-11-21T04:06:10;97290.56;;;6.46;76.25
550;BME280;20066;48.764;9.176;2022-11-21T04:08:38;97288.25;;;6.31;77.00
550;BME280;20066;48.764;9.176;2022-11-21T04:11:06;97288.69;;;6.57;75.58
550;BME280;20066;48.764;9.176;2022-11-21T04:13:34;97284.34;;;6.10;77.57
550;BME280;20066;48.764;9.176;2022-11-21T04:16:02;97282.94;;;6.52;76.21
550;BME280;20066;48.764;9.176;2022-11-21T04:18:30;97286.97;;;6.00;78.93
550;BME280;20066;48.764;9.176;2022-11-21T04:21:01;97279.69;;;5.90;79.85
550;BME280;20066;48.764;9.176;2022-11-21T04:23:29;97281.19;;;5.83;80.20
550;BME280;20066;48.764;9.176;2022-11-21T04:25:57;97261.28;;;5.70;80.44
550;BME280;20066;48.764;9.176;2022-11-21T04:28:24;97273.78;;;6.63;76.00
550;BME280;20066;48.764;9.176;2022-11-21T04:30:52;97271.31;;;5.95;80.50
550;BME280;20066;48.764;9.176;2022-11-21T04:33:21;97276.44;;;6.49;77.62
550;BME280;20066;48.764;9.176;2022-11-21T04:35:48;97287.25;;;7.17;75.10
550;BME280;20066;48.764;9.176;2022-11-21T04:38:17;97279.56;;;6.69;75.83
550;BME280;20066;48.764;9.176;2022-11-21T04:40:45;97276.88;;;6.55;77.86
550;BME280;20066;48.764;9.176;2022-11-21T04:43:13;97279.50;;;6.48;77.77
550;BME280;20066;48.764;9.176;2022-11-21T04:45:40;97280.66;;;6.65;77.93
550;BME280;20066;48.764;9.176;2022-11-21T04:48:10;97275.25;;;6.33;80.93
550;BME280;20066;48.764;9.176;2022-11-21T04:50:37;97269.22;;;6.53;78.35
550;BME280;20066;48.764;9.176;2022-11-21T04:53:05;97272.34;;;6.98;75.85
550;BME280;20066;48.764;9.176;2022-11-21T04:55:34;97275.38;;;7.18;74.78
550;BME280;20066;48.764;9.176;2022-11-21T04:58:02;97273.13;;;7.16;73.68
550;BME280;20066;48.764;9.176;2022-11-21T05:00:30;97271.53;;;6.80;75.27
550;BME280;20066;48.764;9.176;2022-11-21T05:03:01;97271.59;;;7.08;75.46
550;BME280;20066;48.764;9.176;2022-11-21T05:05:29;97274.03;;;8.07;71.38
550;BME280;20066;48.764;9.176;2022-11-21T05:07:57;97276.88;;;7.58;73.03
550;BME280;20066;48.764;9.176;2022-11-21T05:10:24;97279.19;;;7.56;73.55
550;BME280;20066;48.764;9.176;2022-11-21T05:12:57;97276.13;;;7.36;73.88
550;BME280;20066;48.764;9.176;2022-11-21T05:15:43;97269.63;;;7.51;73.97
550;BME280;20066;48.764;9.176;2022-11-21T05:18:12;97265.78;;;7.49;73.54
550;BME280;20066;48.764;9.176;2022-11-21T05:20:39;97262.41;;;6.84;76.19
550;BME280;20066;48.764;9.176;2022-11-21T05:23:07;97273.84;;;6.78;76.54
550;BME280;20066;48.764;9.176;2022-11-21T05:25:35;97279.22;;;7.13;75.19
550;BME280;20066;48.764;9.176;2022-11-21T05:28:04;97274.63;;;7.28;75.22
550;BME280;20066;48.764;9.176;2022-11-21T05:30:32;97272.72;;;7.28;74.59
550;BME280;20066;48.764;9.176;2022-11-21T05:32:59;97277.66;;;7.55;72.57
550;BME280;20066;48.764;9.176;2022-11-21T05:35:27;97272.97;;;7.80;72.08
550;BME280;20066;48.764;9.176;2022-11-21T05:37:55;97275.72;;;7.62;72.32
550;BME280;20066;48.764;9.176;2022-11-21T05:40:24;97278.19;;;8.19;71.23
550;BME280;20066;48.764;9.176;2022-11-21T05:42:51;97291.81;;;6.84;75.56
550;BME280;20066;48.764;9.176;2022-11-21T05:45:38;97285.59;;;6.45;77.00
550;BME280;20066;48.764;9.176;2022-11-21T05:48:06;97291.06;;;6.98;75.94
550;BME280;20066;48.764;9.176;2022-11-21T05:50:34;97292.22;;;7.08;75.47
550;BME280;20066;48.764;9.176;2022-11-21T05:53:03;97297.06;;;6.52;76.72
550;BME280;20066;48.764;9.176;2022-11-21T05:55:33;97308.63;;;7.17;74.80
550;BME280;20066;48.764;9.176;2022-11-21T05:58:00;97315.13;;;7.05;74.22
550;BME280;20066;48.764;9.176;2022-11-21T06:00:29;97305.81;;;6.49;77.23
550;BME280;20066;48.764;9.176;2022-11-21T06:02:58;97308.13;;;6.51;76.81
550;BME280;20066;48.764;9.176;2022-11-21T06:05:43;97297.44;;;6.47;77.41
550;BME280;20066;48.764;9.176;2022-11-21T06:08:11;97305.19;;;7.09;75.90
550;BME280;20066;48.764;9.176;2022-11-21T06:10:38;97310.56;;;7.09;75.42
550;BME280;20066;48.764;9.176;2022-11-21T06:13:06;97312.03;;;7.53;74.34
550;BME280;20066;48.764;9.176;2022-11-21T06:15:52;97306.69;;;6.96;76.18
550;BME280;20066;48.764;9.176;2022-11-21T06:18:23;97304.00;;;7.67;73.00
550;BME280;20066;48.764;9.176;2022-11-21T06:20:51;97299.81;;;7.27;73.13
550;BME280;20066;48.764;9.176;2022-11-21T06:23:19;97301.00;;;7.01;74.32
550;BME280;20066;48.764;9.176;2022-11-21T06:25:47;97309.03;;;7.08;75.06
550;BME280;20066;48.764;9.176;2022-11-21T06:28:22;97306.72;;;6.92;75.38
550;BME280;20066;48.764;9.176;2022-11-21T06:30:49;97301.31;;;6.78;75.56
550;BME280;20066;48.764;9.176;2022-11-21T06:33:18;97305.53;;;7.61;72.90
550;BME280;20066;48.764;9.176;2022-11-21T06:35:47;97304.00;;;7.56;73.17
550;BME280;20066;48.764;9.176;2022-11-21T06:38:15;97305.38;;;8.18;70.47
550;BME280;20066;48.764;9.176;2022-11-21T06:40:44;97298.09;;;8.22;69.99
550;BME280;20066;48.764;9.176;2022-11-21T06:43:12;97299.84;;;7.20;73.78
550;BME280;20066;48.764;9.176;2022-11-21T06:45:39;97303.28;;;7.31;73.93
550;BME280;20066;48.764;9.176;2022-11-21T06:48:07;97305.47;;;6.51;78.04
550;BME280;20066;48.764;9.176;2022-11-21T06:50:35;97308.63;;;5.84;82.14
550;BME280;20066;48.764;9.176;2022-11-21T06:53:05;97302.72;;;6.22;81.68
550;BME280;20066;48.764;9.176;2022-11-21T06:55:33;97311.28;;;6.99;76.76
550;BME280;20066;48.764;9.176;2022-11-21T06:58:01;97315.69;;;6.24;79.02
550;BME280;20066;48.764;9.176;2022-11-21T07:00:28;97326.56;;;7.45;73.92
550;BME280;20066;48.764;9.176;2022-11-21T07:02:59;97321.47;;;6.44;76.88
550;BME280;20066;48.764;9.176;2022-11-21T07:05:28;97328.47;;;7.12;77.28
550;BME280;20066;48.764;9.176;2022-11-21T07:07:57;97320.41;;;6.80;75.24
550;BME280;20066;48.764;9.176;2022-11-21T07:10:27;97304.38;;;5.72;80.52
550;BME280;20066;48.764;9.176;2022-11-21T07:12:56;97303.34;;;5.91;79.97
550;BME280;20066;48.764;9.176;2022-11-21T07:15:41;97309.28;;;6.46;76.82
550;BME280;20066;48.764;9.176;2022-11-21T07:18:09;97304.69;;;6.50;77.96
550;BME280;20066;48.764;9.176;2022-11-21T07:20:37;97303.53;;;6.44;76.95
550;BME280;20066;48.764;9.176;2022-11-21T07:23:05;97304.00;;;6.78;75.09
550;BME280;20066;48.764;9.176;2022-11-21T07:25:34;97308.22;;;7.47;72.07
550;BME280;20066;48.764;9.176;2022-11-21T07:28:03;97316.94;;;7.90;69.66
550;BME280;20066;48.764;9.176;2022-11-21T07:30:31;97314.28;;;6.69;74.66
550;BME280;20066;48.764;9.176;2022-11-21T07:33:00;97309.34;;;7.70;70.99
550;BME280;20066;48.764;9.176;2022-11-21T07:35:28;97318.53;;;7.48;70.65
550;BME280;20066;48.764;9.176;2022-11-21T07:37:56;97306.56;;;6.36;73.61
550;BME280;20066;48.764;9.176;2022-11-21T07:40:24;97304.72;;;6.54;74.34
550;BME280;20066;48.764;9.176;2022-11-21T07:42:53;97306.34;;;7.29;71.96
550;BME280;20066;48.764;9.176;2022-11-21T07:45:21;97303.59;;;6.62;73.85
550;BME280;20066;48.764;9.176;2022-11-21T07:47:56;97301.31;;;6.75;74.32
550;BME280;20066;48.764;9.176;2022-11-21T07:50:25;97307.69;;;6.28;74.78
550;BME280;20066;48.764;9.176;2022-11-21T07:52:56;97304.38;;;6.70;74.97
550;BME280;20066;48.764;9.176;2022-11-21T07:55:24;97307.75;;;6.52;74.47
550;BME280;20066;48.764;9.176;2022-11-21T07:58:00;97309.81;;;5.94;76.58
550;BME280;20066;48.764;9.176;2022-11-21T08:00:29;97314.94;;;6.31;76.07
550;BME280;20066;48.764;9.176;2022-11-21T08:02:57;97316.13;;;6.44;74.75
550;BME280;20066;48.764;9.176;2022-11-21T08:05:25;97316.88;;;6.44;74.45
550;BME280;20066;48.764;9.176;2022-11-21T08:07:53;97324.28;;;7.25;71.00
550;BME280;20066;48.764;9.176;2022-11-21T08:10:21;97308.19;;;5.75;76.14
550;BME280;20066;48.764;9.176;2022-11-21T08:12:48;97316.16;;;6.65;75.45
550;BME280;20066;48.764;9.176;2022-11-21T08:15:17;97309.31;;;6.75;74.08
550;BME280;20066;48.764;9.176;2022-11-21T08:17:45;97300.00;;;6.15;75.12
550;BME280;20066;48.764;9.176;2022-11-21T08:20:13;97313.41;;;6.33;75.52
550;BME280;20066;48.764;9.176;2022-11-21T08:22:41;97302.34;;;6.28;75.91
550;BME280;20066;48.764;9.176;2022-11-21T08:25:09;97305.19;;;7.13;72.87
550;BME280;20066;48.764;9.176;2022-11-21T08:27:38;97292.84;;;7.93;68.87
550;BME280;20066;48.764;9.176;2022-11-21T08:30:07;97297.09;;;7.76;68.32
550;BME280;20066;48.764;9.176;2022-11-21T08:32:37;97298.63;;;7.67;68.94
550;BME280;20066;48.764;9.176;2022-11-21T08:35:05;97296.03;;;6.85;72.34
550;BME280;20066;48.764;9.176;2022-11-21T08:37:33;97302.50;;;6.98;72.91
550;BME280;20066;48.764;9.176;2022-11-21T08:40:01;97298.31;;;7.36;72.05
550;BME280;20066;48.764;9.176;2022-11-21T08:42:29;97300.50;;;6.63;73.52
550;BME280;20066;48.764;9.176;2022-11-21T08:44:56;97290.22;;;6.55;74.83
550;BME280;20066;48.764;9.176;2022-11-21T08:47:24;97303.16;;;7.98;69.71
550;BME280;20066;48.764;9.176;2022-11-21T08:49:53;97301.06;;;9.89;64.58
550;BME280;20066;48.764;9.176;2022-11-21T08:52:21;97297.28;;;8.28;66.71
550;BME280;20066;48.764;9.176;2022-11-21T08:54:49;97282.34;;;8.31;67.76
550;BME280;20066;48.764;9.176;2022-11-21T08:57:17;97292.50;;;9.19;64.06
550;BME280;20066;48.764;9.176;2022-11-21T08:59:45;97289.00;;;10.38;60.50
550;BME280;20066;48.764;9.176;2022-11-21T09:02:12;97287.91;;;9.23;64.32
550;BME280;20066;48.764;9.176;2022-11-21T09:04:40;97288.38;;;10.58;60.93
550;BME280;20066;48.764;9.176;2022-11-21T09:07:09;97280.69;;;9.95;60.84
550;BME280;20066;48.764;9.176;2022-11-21T09:09:37;97289.25;;;10.74;58.88
550;BME280;20066;48.764;9.176;2022-11-21T09:12:05;97278.91;;;10.46;58.77
550;BME280;20066;48.764;9.176;2022-11-21T09:14:33;97272.97;;;9.60;61.70
550;BME280;20066;48.764;9.176;2022-11-21T09:17:18;97267.41;;;10.45;59.83
550;BME280;20066;48.764;9.176;2022-11-21T09:20:04;97268.97;;;11.20;57.58
550;BME280;20066;48.764;9.176;2022-11-21T09:22:33;97268.25;;;10.66;58.16
550;BME280;20066;48.764;9.176;2022-11-21T09:25:02;97265.69;;;11.09;57.59
550;BME280;20066;48.764;9.176;2022-11-21T09:27:30;97273.44;;;12.13;55.05
550;BME280;20066;48.764;9.176;2022-11-21T09:29:58;97278.19;;;12.45;54.12
550;BME280;20066;48.764;9.176;2022-11-21T09:32:26;97272.91;;;12.02;54.94
550;BME280;20066;48.764;9.176;2022-11-21T09:34:53;97269.75;;;11.87;54.91
550;BME280;20066;48.764;9.176;2022-11-21T09:37:21;97272.91;;;12.57;53.40
550;BME280;20066;48.764;9.176;2022-11-21T09:39:50;97272.28;;;11.74;54.61
550;BME280;20066;48.764;9.176;2022-11-21T09:42:47;97285.91;;;12.26;54.57
550;BME280;20066;48.764;9.176;2022-11-21T09:45:21;97284.66;;;11.48;56.28
550;BME280;20066;48.764;9.176;2022-11-21T09:47:51;97285.75;;;11.74;54.36
550;BME280;20066;48.764;9.176;2022-11-21T09:50:27;97267.94;;;12.00;51.97
550;BME280;20066;48.764;9.176;2022-11-21T09:52:59;97266.78;;;10.88;54.72
550;BME280;20066;48.764;9.176;2022-11-21T09:55:39;97256.91;;;10.55;55.88
550;BME280;20066;48.764;9.176;2022-11-21T09:58:18;97253.63;;;10.94;55.31
550;BME280;20066;48.764;9.176;2022-11-21T10:00:49;97243.59;;;12.75;51.39
550;BME280;20066;48.764;9.176;2022-11-21T10:03:20;97245.63;;;13.36;49.28
550;BME280;20066;48.764;9.176;2022-11-21T10:05:51;97237.09;;;14.88;45.98
550;BME280;20066;48.764;9.176;2022-11-21T10:08:27;97236.28;;;16.03;42.93
550;BME280;20066;48.764;9.176;2022-11-21T10:11:08;97226.16;;;13.29;48.14
550;BME280;20066;48.764;9.176;2022-11-21T10:14:05;97220.59;;;13.03;50.34
550;BME280;20066;48.764;9.176;2022-11-21T10:16:40;97219.59;;;11.07;53.06
550;BME280;20066;48.764;9.176;2022-11-21T10:19:38;97208.47;;;11.05;54.63
550;BME280;20066;48.764;9.176;2022-11-21T10:22:23;97206.47;;;12.47;51.46
550;BME280;20066;48.764;9.176;2022-11-21T10:25:02;97202.78;;;14.59;47.16
550;BME280;20066;48.764;9.176;2022-11-21T10:27:44;97188.53;;;10.79;54.15
550;BME280;20066;48.764;9.176;2022-11-21T10:30:15;97184.53;;;12.29;51.19
550;BME280;20066;48.764;9.176;2022-11-21T10:32:45;97180.59;;;11.38;53.43
550;BME280;20066;48.764;9.176;2022-11-21T10:35:15;97178.56;;;12.54;50.37
550;BME280;20066;48.764;9.176;2022-11-21T10:37:48;97183.13;;;12.57;49.88
550;BME280;20066;48.764;9.176;2022-11-21T10:40:28;97184.66;;;12.90;49.14
550;BME280;20066;48.764;9.176;2022-11-21T10:43:03;97186.22;;;12.23;50.67
550;BME280;20066;48.764;9.176;2022-11-21T10:45:53;97174.34;;;13.18;47.92
550;BME280;20066;48.764;9.176;2022-11-21T10:48:20;97167.84;;;13.15;48.35
550;BME280;20066;48.764;9.176;2022-11-21T10:51:01;97161.28;;;13.00;50.02
550;BME280;20066;48.764;9.176;2022-11-21T10:53:31;97159.44;;;13.96;46.80
550;BME280;20066;48.764;9.176;2022-11-21T10:56:17;97160.13;;;14.51;45.32
550;BME280;20066;48.764;9.176;2022-11-21T10:58:49;97154.91;;;15.16;44.31
550;BME280;20066;48.764;9.176;2022-11-21T11:01:22;97148.25;;;16.26;40.86
550;BME280;20066;48.764;9.176;2022-11-21T11:04:10;97139.34;;;14.22;43.89
550;BME280;20066;48.764;9.176;2022-11-21T11:07:20;97124.72;;;11.82;50.23
550;BME280;20066;48.764;9.176;2022-11-21T11:09:48;97120.88;;;11.43;52.18
550;BME280;20066;48.764;9.176;2022-11-21T11:12:26;97110.47;;;12.17;50.84
550;BME280;20066;48.764;9.176;2022-11-21T11:15:22;97100.38;;;9.90;54.90
550;BME280;20066;48.764;9.176;2022-11-21T11:17:52;97096.63;;;11.99;51.24
550;BME280;20066;48.764;9.176;2022-11-21T11:20:32;97086.88;;;10.70;53.41
550;BME280;20066;48.764;9.176;2022-11-21T11:23:14;97092.78;;;11.44;51.31
550;BME280;20066;48.764;9.176;2022-11-21T11:25:45;97090.69;;;11.52;50.80
550;BME280;20066;48.764;9.176;2022-11-21T11:28:13;97075.59;;;12.10;47.82
550;BME280;20066;48.764;9.176;2022-11-21T11:30:42;97075.09;;;12.15;47.60
550;BME280;20066;48.764;9.176;2022-11-21T11:33:41;97076.56;;;12.81;45.63
550;BME280;20066;48.764;9.176;2022-11-21T11:36:25;97076.69;;;11.21;49.62
550;BME280;20066;48.764;9.176;2022-11-21T11:38:58;97074.69;;;11.65;49.57
550;BME280;20066;48.764;9.176;2022-11-21T11:41:41;97063.06;;;12.20;48.37
550;BME280;20066;48.764;9.176;2022-11-21T11:44:48;97046.50;;;10.51;51.53
550;BME280;20066;48.764;9.176;2022-11-21T11:47:44;97060.16;;;10.60;52.66
550;BME280;20066;48.764;9.176;2022-11-21T11:50:23;97052.38;;;11.44;50.19
550;BME280;20066;48.764;9.176;2022-11-21T11:52:56;97052.31;;;10.69;50.95
550;BME280;20066;48.764;9.176;2022-11-21T11:55:31;97043.66;;;10.38;51.13
550;BME280;20066;48.764;9.176;2022-11-21T11:58:02;97036.47;;;11.70;48.48
550;BME280;20066;48.764;9.176;2022-11-21T12:00:38;97036.47;;;11.70;48.31
550;BME280;20066;48.764;9.176;2022-11-21T12:03:13;97036.88;;;12.65;47.07
550;BME280;20066;48.764;9.176;2022-11-21T12:05:50;97027.44;;;11.60;49.32
550;BME280;20066;48.764;9.176;2022-11-21T12:08:24;97035.09;;;11.06;50.92
550;BME280;20066;48.764;9.176;2022-11-21T12:11:25;97024.41;;;10.82;52.39
550;BME280;20066;48.764;9.176;2022-11-21T12:14:21;97026.34;;;10.39;52.43
550;BME280;20066;48.764;9.176;2022-11-21T12:17:15;97021.34;;;11.40;50.38
550;BME280;20066;48.764;9.176;2022-11-21T12:19:48;97013.34;;;11.52;48.19
550;BME280;20066;48.764;9.176;2022-11-21T12:22:17;97004.75;;;10.86;49.86
550;BME280;20066;48.764;9.176;2022-11-21T12:24:45;97007.78;;;11.27;49.39
550;BME280;20066;48.764;9.176;2022-11-21T12:27:25;96999.31;;;10.69;52.07
550;BME280;20066;48.764;9.176;2022-11-21T12:30:06;96990.13;;;11.42;51.24
550;BME280;20066;48.764;9.176;2022-11-21T12:32:52;96980.69;;;10.78;51.05
550;BME280;20066;48.764;9.176;2022-11-21T12:35:38;96982.22;;;11.35;49.94
550;BME280;20066;48.764;9.176;2022-11-21T12:38:23;96981.44;;;11.87;49.13
550;BME280;20066;48.764;9.176;2022-11-21T12:41:03;96962.16;;;11.88;48.90
550;BME280;20066;48.764;9.176;2022-11-21T12:44:05;96958.03;;;12.74;47.65
550;BME280;20066;48.764;9.176;2022-11-21T12:46:45;96949.56;;;12.14;48.80
550;BME280;20066;48.764;9.176;2022-11-21T12:49:23;96945.91;;;12.66;47.47
550;BME280;20066;48.764;9.176;2022-11-21T12:52:22;96944.94;;;13.01;46.19
550;BME280;20066;48.764;9.176;2022-11-21T12:55:18;96933.09;;;11.47;49.14
550;BME280;20066;48.764;9.176;2022-11-21T12:58:11;96917.16;;;10.84;51.07
550;BME280;20066;48.764;9.176;2022-11-21T13:03:51;96904.56;;;10.98;51.89
550;BME280;20066;48.764;9.176;2022-11-21T13:06:26;96903.16;;;10.73;52.14
550;BME280;20066;48.764;9.176;2022-11-21T13:08:58;96893.13;;;10.58;52.29
550;BME280;20066;48.764;9.176;2022-11-21T13:11:37;96883.91;;;9.96;53.68
550;BME280;20066;48.764;9.176;2022-11-21T13:14:27;96884.03;;;10.71;52.30
550;BME280;20066;48.764;9.176;2022-11-21T13:17:13;96884.91;;;11.98;49.25
550;BME280;20066;48.764;9.176;2022-11-21T13:19:51;96884.22;;;11.81;48.54
550;BME280;20066;48.764;9.176;2022-11-21T13:22:49;96881.25;;;11.76;49.20
550;BME280;20066;48.764;9.176;2022-11-21T13:25:39;96875.25;;;12.01;47.92
550;BME280;20066;48.764;9.176;2022-11-21T13:28:29;96871.34;;;11.40;50.16
550;BME280;20066;48.764;9.176;2022-11-21T13:30:59;96868.81;;;12.40;48.03
550;BME280;20066;48.764;9.176;2022-11-21T13:33:45;96860.78;;;12.77;47.21
550;BME280;20066;48.764;9.176;2022-11-21T13:36:38;96860.06;;;13.28;45.55
550;BME280;20066;48.764;9.176;2022-11-21T13:39:25;96850.66;;;13.07;46.68
550;BME280;20066;48.764;9.176;2022-11-21T13:42:06;96858.13;;;13.28;47.15
550;BME280;20066;48.764;9.176;2022-11-21T13:44:52;96845.78;;;13.40;44.48
550;BME280;20066;48.764;9.176;2022-11-21T13:50:53;96828.16;;;12.59;46.46
550;BME280;20066;48.764;9.176;2022-11-21T13:53:39;96825.66;;;12.52;47.97
550;BME280;20066;48.764;9.176;2022-11-21T13:56:22;96819.78;;;13.21;46.39
550;BME280;20066;48.764;9.176;2022-11-21T13:59:04;96831.19;;;11.46;47.22
550;BME280;20066;48.764;9.176;2022-11-21T14:01:52;96817.28;;;11.80;46.81
550;BME280;20066;48.764;9.176;2022-11-21T14:04:44;96820.19;;;11.40;47.21
550;BME280;20066;48.764;9.176;2022-11-21T14:07:23;96816.91;;;10.48;49.27